Time;durP1;ratioP1;P1;durP2;ratioP2;P2;SDS_P1;SDS_P2;PMS_P1;PMS_P2;Temp;Humidity;BMP_temperature;BMP_pressure;BME280_temperature;BME280_humidity;BME280_pressure;Samples;Min_cycle;Max_cycle;Signal;HPM_P1;HPM_P2
2024/01/22 00:01:19;;;;;;;1.70;0.80;;;;;;;7.12;72.46;147953.88;4970236;28;20713;-64
2024/01/22 00:03:46;;;;;;;3.10;0.80;;;;;;;7.03;72.59;147932.78;4974257;28;20229;-64
2024/01/22 00:06:13;;;;;;;0.80;0.40;;;;;;;6.88;73.73;147896.78;4973230;28;20235;-64
2024/01/22 00:08:40;;;;;;;2.37;0.90;;;;;;;6.79;74.33;147876.91;4976036;28;20236;-64
2024/01/22 00:11:06;;;;;;;1.57;0.50;;;;;;;7.02;72.62;147930.28;4972626;28;20230;-64
2024/01/22 00:13:33;;;;;;;1.77;0.77;;;;;;;7.09;71.28;147947.69;4970450;28;20593;-64
2024/01/22 00:16:00;;;;;;;3.13;1.00;;;;;;;7.19;70.75;147971.28;4968343;28;20705;-64
2024/01/22 00:18:28;;;;;;;2.40;0.60;;;;;;;6.98;71.70;147920.34;4959398;28;20236;-64
2024/01/22 00:20:54;;;;;;;2.00;0.80;;;;;;;6.87;71.73;147894.28;4974171;28;20749;-64
2024/01/22 00:23:21;;;;;;;1.93;0.63;;;;;;;7.03;71.41;147932.78;4971552;28;20936;-65
2024/01/22 00:25:48;;;;;;;0.70;0.50;;;;;;;6.85;71.77;147890.53;4973490;28;20225;-64
2024/01/22 00:28:14;;;;;;;10.33;2.17;;;;;;;6.93;71.67;147909.16;4968011;28;20566;-65
2024/01/22 00:30:41;;;;;;;0.80;0.50;;;;;;;6.85;72.38;147890.53;4976542;28;20229;-65
2024/01/22 00:33:08;;;;;;;2.93;0.57;;;;;;;6.78;72.16;147874.41;4972806;28;20225;-65
2024/01/22 00:35:36;;;;;;;2.10;0.70;;;;;;;6.85;72.38;147889.31;4979566;28;20790;-64
2024/01/22 00:38:02;;;;;;;2.57;0.50;;;;;;;6.68;72.88;147849.56;4974428;28;20328;-65
2024/01/22 00:40:29;;;;;;;3.37;0.63;;;;;;;6.75;73.15;147866.97;4975337;28;20230;-64
2024/01/22 00:42:56;;;;;;;3.10;0.63;;;;;;;6.85;72.92;147890.53;4976319;28;20224;-64
2024/01/22 00:45:22;;;;;;;1.67;0.60;;;;;;;6.85;73.06;147890.53;4976331;28;20573;-65
2024/01/22 00:47:51;;;;;;;2.73;0.70;;;;;;;6.79;73.82;147875.63;4976155;28;20240;-64
2024/01/22 00:50:19;;;;;;;4.27;0.63;;;;;;;6.65;74.48;147842.09;4966290;28;20741;-64
2024/01/22 00:52:52;;;;;;;2.83;0.70;;;;;;;6.53;75.07;147813.50;4969159;28;20217;-64
2024/01/22 00:55:18;;;;;;;1.40;0.40;;;;;;;6.35;76.35;147770.06;4973660;28;20309;-64
2024/01/22 00:57:45;;;;;;;4.07;0.70;;;;;;;6.44;77.38;147791.16;4974254;28;20234;-65
2024/01/22 01:00:12;;;;;;;1.70;0.63;;;;;;;6.39;78.04;147780.00;4975944;28;20222;-64
2024/01/22 01:02:39;;;;;;;1.17;0.53;;;;;;;6.50;76.82;147806.06;4977460;28;20264;-64
2024/01/22 01:05:06;;;;;;;1.30;0.60;;;;;;;6.32;78.14;147762.63;4976088;28;20572;-65
2024/01/22 01:07:33;;;;;;;3.40;0.80;;;;;;;6.47;78.21;147798.59;4980086;28;20232;-64
2024/01/22 01:10:01;;;;;;;2.37;0.60;;;;;;;6.44;78.36;147791.16;4976130;28;20213;-65
2024/01/22 01:12:27;;;;;;;2.43;0.60;;;;;;;6.45;78.15;147793.63;4967513;28;20241;-64
2024/01/22 01:14:54;;;;;;;1.27;0.60;;;;;;;6.31;79.44;147761.41;4968991;28;20272;-64
2024/01/22 01:17:21;;;;;;;3.43;0.93;;;;;;;6.28;76.50;147752.69;4967170;28;20224;-64
2024/01/22 01:19:47;;;;;;;2.70;1.00;;;;;;;6.07;73.83;147701.78;4953800;28;20220;-64
2024/01/22 01:22:14;;;;;;;2.97;1.10;;;;;;;5.92;73.76;147666.97;4954736;28;20225;-65
2024/01/22 01:24:40;;;;;;;2.33;0.80;;;;;;;5.63;74.35;147597.44;4979562;28;20233;-64
2024/01/22 01:27:08;;;;;;;4.67;1.20;;;;;;;5.19;76.93;147490.75;4974777;28;20244;-64
2024/01/22 01:29:35;;;;;;;4.63;1.43;;;;;;;5.00;76.61;147446.09;4978323;28;20608;-65
2024/01/22 01:32:02;;;;;;;4.07;1.37;;;;;;;4.72;77.56;147380.34;4974400;28;20226;-65
2024/01/22 01:34:28;;;;;;;4.27;1.40;;;;;;;4.54;78.69;147336.91;4973673;28;20243;-61
2024/01/22 01:36:55;;;;;;;2.27;1.20;;;;;;;4.35;80.88;147289.78;4974653;28;20222;-65
2024/01/22 01:39:22;;;;;;;1.70;0.97;;;;;;;4.10;83.10;147230.31;4976606;28;20720;-65
2024/01/22 01:41:49;;;;;;;2.80;1.10;;;;;;;3.99;82.63;147205.50;4974635;28;20248;-65
2024/01/22 01:44:17;;;;;;;2.90;1.20;;;;;;;3.90;84.71;147183.19;4973655;28;20218;-65
2024/01/22 01:46:44;;;;;;;2.60;1.10;;;;;;;3.84;85.22;147168.31;4956467;28;20229;-65
2024/01/22 01:49:11;;;;;;;2.90;1.10;;;;;;;3.64;86.05;147121.19;4955274;28;20226;-65
2024/01/22 01:51:40;;;;;;;4.07;1.40;;;;;;;3.47;87.65;147080.31;4960563;28;20236;-65
2024/01/22 01:54:09;;;;;;;4.53;1.30;;;;;;;3.36;89.21;147054.28;4969134;28;20214;-65
2024/01/22 01:56:35;;;;;;;1.80;1.00;;;;;;;3.24;89.83;147025.78;4976975;28;20319;-65
2024/01/22 01:59:02;;;;;;;2.70;1.10;;;;;;;3.07;91.31;146984.91;4972225;28;20227;-65
2024/01/22 02:01:30;;;;;;;3.80;1.30;;;;;;;3.23;91.27;147023.31;4979096;28;20252;-65
2024/01/22 02:03:57;;;;;;;4.00;1.27;;;;;;;3.25;90.10;147028.28;4976754;28;21083;-65
2024/01/22 02:06:22;;;;;;;6.53;1.47;;;;;;;3.29;87.70;147035.72;4973631;28;20235;-64
2024/01/22 02:08:53;;;;;;;3.90;1.40;;;;;;;3.25;89.15;147028.28;4973153;28;20233;-64
2024/01/22 02:11:21;;;;;;;0.00;0.00;;;;;;;3.18;89.12;147010.91;4966130;28;20253;-65
2024/01/22 02:13:47;;;;;;;0.00;0.00;;;;;;;3.16;90.54;147004.75;4979291;28;20696;-64
2024/01/22 02:16:14;;;;;;;0.00;0.00;;;;;;;3.13;91.30;146998.53;4960301;28;20243;-64
2024/01/22 02:18:42;;;;;;;0.00;0.00;;;;;;;3.08;88.44;146987.41;4951409;28;20230;-64
2024/01/22 02:21:08;;;;;;;0.00;0.00;;;;;;;3.17;90.07;147007.22;4961185;28;20229;-64
2024/01/22 02:23:36;;;;;;;0.00;0.00;;;;;;;3.24;91.25;147025.78;4967808;28;20247;-65
2024/01/22 02:26:03;;;;;;;0.00;0.00;;;;;;;3.64;92.66;147120.00;4971310;28;20224;-64
2024/01/22 02:28:31;;;;;;;0.00;0.00;;;;;;;3.50;87.08;147086.50;4971612;28;20706;-64
2024/01/22 02:30:58;;;;;;;0.00;0.00;;;;;;;3.43;91.15;147070.41;4971675;28;20228;-65
2024/01/22 02:33:25;;;;;;;0.00;0.00;;;;;;;3.24;88.68;147024.53;4971953;28;20292;-65
2024/01/22 02:35:51;;;;;;;0.00;0.00;;;;;;;3.22;87.05;147020.84;4978919;28;20225;-65
2024/01/22 02:38:18;;;;;;;0.00;0.00;;;;;;;3.08;86.72;146986.13;4971142;28;20217;-65
2024/01/22 02:40:46;;;;;;;0.00;0.00;;;;;;;3.01;89.14;146970.06;4973597;28;20235;-65
2024/01/22 02:43:12;;;;;;;0.00;0.00;;;;;;;2.93;89.80;146951.44;4968896;28;20237;-65
2024/01/22 02:45:39;;;;;;;0.00;0.00;;;;;;;3.04;89.90;146977.50;4975976;28;20248;-65
2024/01/22 02:48:06;;;;;;;0.00;0.00;;;;;;;3.05;89.74;146979.97;4970138;28;20225;-64
2024/01/22 02:50:33;;;;;;;0.00;0.00;;;;;;;3.03;89.55;146975.00;4972400;28;20225;-60
2024/01/22 02:53:00;;;;;;;0.00;0.00;;;;;;;3.01;91.25;146968.78;4972030;28;20241;-65
2024/01/22 02:55:26;;;;;;;0.00;0.00;;;;;;;3.02;92.33;146971.28;4972548;28;20323;-65
2024/01/22 02:57:54;;;;;;;0.00;0.00;;;;;;;3.04;93.36;146976.22;4978053;28;20236;-65
2024/01/22 03:00:21;;;;;;;0.00;0.00;;;;;;;2.99;93.39;146963.84;4976503;28;24210;-65
2024/01/22 03:02:50;;;;;;;0.00;0.00;;;;;;;3.05;93.86;146978.69;4979003;28;20221;-65
2024/01/22 03:05:17;;;;;;;0.00;0.00;;;;;;;3.09;95.12;146989.88;4974955;28;20728;-65
2024/01/22 03:07:44;;;;;;;0.00;0.00;;;;;;;3.25;94.42;147027.00;4979621;28;20233;-64
2024/01/22 03:10:11;;;;;;;0.00;0.00;;;;;;;3.54;97.14;147097.66;4974887;28;20225;-67
2024/01/22 03:12:37;;;;;;;0.00;0.00;;;;;;;4.48;98.81;147322.03;4978794;28;20220;-65
2024/01/22 03:15:06;;;;;;;0.00;0.00;;;;;;;4.96;95.35;147436.16;4978027;28;20698;-65
2024/01/22 03:17:33;;;;;;;0.00;0.00;;;;;;;5.34;93.03;147527.94;4979800;28;20232;-65
2024/01/22 03:19:59;;;;;;;0.03;0.03;;;;;;;5.62;90.69;147594.97;4979888;28;20229;-65
2024/01/22 03:22:26;;;;;;;0.00;0.00;;;;;;;6.05;88.59;147698.03;4970914;28;20697;-65
2024/01/22 03:24:53;;;;;;;0.00;0.00;;;;;;;6.37;86.03;147773.78;4975766;28;20237;-65
2024/01/22 03:27:19;;;;;;;0.00;0.00;;;;;;;6.48;84.76;147801.09;4973049;28;20214;-65
2024/01/22 03:29:46;;;;;;;0.00;0.00;;;;;;;6.58;83.67;147825.94;4976766;28;20268;-65
2024/01/22 03:32:14;;;;;;;0.00;0.00;;;;;;;6.54;83.57;147814.78;4967123;28;20238;-65
2024/01/22 03:34:41;;;;;;;0.00;0.00;;;;;;;6.69;82.50;147852.03;4974007;28;20260;-65
2024/01/22 03:37:07;;;;;;;0.00;0.00;;;;;;;6.67;81.42;147845.81;4974365;28;20221;-65
2024/01/22 03:39:34;;;;;;;0.00;0.00;;;;;;;6.82;81.20;147883.09;4972432;28;20234;-65
2024/01/22 03:42:00;;;;;;;0.00;0.00;;;;;;;7.00;79.31;147926.53;4972430;28;20232;-65
2024/01/22 03:44:27;;;;;;;0.00;0.00;;;;;;;7.04;79.73;147936.47;4973839;28;20248;-65
2024/01/22 03:46:54;;;;;;;0.00;0.00;;;;;;;7.30;77.80;147998.63;4975064;28;20218;-65
2024/01/22 03:49:22;;;;;;;0.00;0.00;;;;;;;7.28;76.58;147992.44;4972327;28;20315;-65
2024/01/22 03:51:47;;;;;;;0.00;0.00;;;;;;;7.29;76.77;147994.91;4975673;28;20326;-65
2024/01/22 03:54:14;;;;;;;0.00;0.00;;;;;;;7.32;76.10;148003.59;4973040;28;20305;-65
2024/01/22 03:56:41;;;;;;;0.00;0.00;;;;;;;7.41;76.03;148024.75;4975930;28;20604;-65
2024/01/22 03:59:07;;;;;;;0.00;0.00;;;;;;;7.56;75.59;148059.50;4975295;28;20227;-65
2024/01/22 04:04:18;;;;;;;0.00;0.00;;;;;;;7.67;74.34;148086.84;5436851;23;20556;-67
2024/01/22 04:06:46;;;;;;;0.00;0.00;;;;;;;7.73;73.04;148101.75;4976731;28;20238;-65
2024/01/22 04:09:12;;;;;;;0.00;0.00;;;;;;;7.80;72.64;148117.97;4974301;28;20225;-67
2024/01/22 04:11:39;;;;;;;0.00;0.00;;;;;;;7.94;71.08;148151.50;4980113;28;20313;-65
2024/01/22 04:14:06;;;;;;;0.00;0.00;;;;;;;7.96;71.48;148157.69;4963840;28;20258;-66
2024/01/22 04:16:32;;;;;;;0.00;0.00;;;;;;;8.21;70.22;148216.16;4959936;28;20296;-64
2024/01/22 04:18:59;;;;;;;0.00;0.00;;;;;;;8.21;69.92;148217.38;4957591;28;20234;-65
2024/01/22 04:21:26;;;;;;;0.00;0.00;;;;;;;8.13;69.91;148198.75;4972580;28;20735;-64
2024/01/22 04:23:54;;;;;;;0.00;0.00;;;;;;;8.10;69.52;148191.28;4961055;28;20710;-64
2024/01/22 04:26:20;;;;;;;0.00;0.00;;;;;;;8.11;67.99;148193.78;4954548;28;20229;-64
2024/01/22 04:28:47;;;;;;;0.00;0.00;;;;;;;8.12;68.53;148196.25;4958255;28;20231;-65
2024/01/22 04:31:14;;;;;;;0.00;0.00;;;;;;;8.17;67.01;148206.22;5176689;23;20338;-65
2024/01/22 04:33:43;;;;;;;0.00;0.00;;;;;;;8.13;67.98;148197.47;4998839;28;20233;-65
2024/01/22 04:36:10;;;;;;;0.00;0.00;;;;;;;8.05;68.07;148177.59;4998577;28;20229;-65
2024/01/22 04:38:36;;;;;;;0.00;0.00;;;;;;;7.93;68.51;148150.28;4996724;28;20235;-65
2024/01/22 04:41:04;;;;;;;0.00;0.00;;;;;;;7.99;68.31;148163.94;4990128;28;20226;-65
2024/01/22 04:43:31;;;;;;;0.00;0.00;;;;;;;8.19;66.52;148211.19;4975504;28;20239;-65
2024/01/22 04:45:58;;;;;;;0.00;0.00;;;;;;;8.05;67.36;148177.59;4979206;28;20234;-65
2024/01/22 04:48:25;;;;;;;0.00;0.00;;;;;;;8.28;65.41;148234.78;4991116;28;20242;-65
2024/01/22 04:50:52;;;;;;;0.00;0.00;;;;;;;8.18;64.80;148209.91;4977723;28;20326;-65
2024/01/22 04:53:18;;;;;;;0.00;0.00;;;;;;;8.01;66.45;148168.91;4974719;28;20306;-65
2024/01/22 04:55:45;;;;;;;0.00;0.00;;;;;;;7.92;66.62;148146.53;4977442;28;20330;-64
2024/01/22 04:58:13;;;;;;;0.00;0.00;;;;;;;7.96;65.09;148156.47;4973919;28;20221;-64
2024/01/22 05:00:39;;;;;;;0.00;0.00;;;;;;;8.02;64.33;148171.41;4977473;28;20230;-64
2024/01/22 05:03:06;;;;;;;0.00;0.00;;;;;;;8.15;63.37;148202.47;4973852;28;20305;-64
2024/01/22 05:05:34;;;;;;;0.00;0.00;;;;;;;8.18;62.11;148208.69;4975657;28;20314;-64
2024/01/22 05:08:01;;;;;;;0.00;0.00;;;;;;;8.28;59.81;148234.78;4978131;28;20313;-64
2024/01/22 05:10:27;;;;;;;0.00;0.00;;;;;;;8.49;57.47;148283.31;4967629;28;20245;-65
2024/01/22 05:12:54;;;;;;;0.00;0.00;;;;;;;8.40;58.10;148262.16;4977070;28;20239;-67
2024/01/22 05:15:22;;;;;;;0.00;0.00;;;;;;;8.37;56.88;148255.97;4975904;28;20720;-65
2024/01/22 05:17:50;;;;;;;0.00;0.00;;;;;;;8.64;53.71;148319.41;4974879;28;20246;-65
2024/01/22 05:20:17;;;;;;;0.00;0.00;;;;;;;8.69;54.14;148333.06;4977132;28;20593;-65
2024/01/22 05:22:45;;;;;;;0.00;0.00;;;;;;;8.56;53.52;148300.72;4977413;28;20246;-65
2024/01/22 05:25:12;;;;;;;0.00;0.00;;;;;;;8.57;52.83;148304.50;4974546;28;20241;-65
2024/01/22 05:27:43;;;;;;;0.20;0.10;;;;;;;8.60;51.86;148310.69;4979248;28;20705;-65
2024/01/22 05:30:10;;;;;;;0.00;0.00;;;;;;;8.72;51.35;148339.31;4975998;28;20227;-65
2024/01/22 05:32:38;;;;;;;0.00;0.00;;;;;;;8.87;50.92;148375.38;4976975;28;20239;-65
2024/01/22 05:35:06;;;;;;;0.00;0.00;;;;;;;8.91;50.31;148384.09;4972936;28;20226;-65
2024/01/22 05:37:32;;;;;;;0.00;0.00;;;;;;;8.92;50.98;148386.59;4977880;28;20250;-65
2024/01/22 05:39:59;;;;;;;0.00;0.00;;;;;;;8.86;50.61;148374.16;4984061;28;20234;-65
2024/01/22 05:42:26;;;;;;;0.00;0.00;;;;;;;8.79;51.75;148356.72;4974812;28;20238;-65
2024/01/22 05:44:52;;;;;;;0.00;0.00;;;;;;;8.89;49.88;148379.13;4978147;28;20321;-65
2024/01/22 05:47:19;;;;;;;0.00;0.00;;;;;;;8.96;48.84;148397.78;4974199;28;20229;-65
2024/01/22 05:49:47;;;;;;;0.00;0.00;;;;;;;9.04;49.05;148416.41;4979410;28;20227;-67
2024/01/22 05:52:14;;;;;;;0.00;0.00;;;;;;;9.05;49.69;148417.69;4978329;28;20598;-67
2024/01/22 05:54:41;;;;;;;0.00;0.00;;;;;;;9.08;50.68;148426.38;4978877;28;21040;-66
2024/01/22 05:57:09;;;;;;;0.00;0.00;;;;;;;9.15;50.39;148442.56;4972300;28;20223;-67
2024/01/22 05:59:36;;;;;;;0.00;0.00;;;;;;;9.21;51.82;148457.50;4975698;28;20242;-67
2024/01/22 06:02:02;;;;;;;0.00;0.00;;;;;;;9.30;51.68;148479.91;4971629;28;20307;-68
2024/01/22 06:04:29;;;;;;;0.00;0.00;;;;;;;9.33;52.62;148486.09;4974340;28;20239;-66
2024/01/22 06:06:57;;;;;;;0.00;0.00;;;;;;;9.37;52.52;148494.84;4977713;28;20224;-67
2024/01/22 06:09:24;;;;;;;0.00;0.00;;;;;;;9.35;52.58;148491.06;4971085;28;20242;-67
2024/01/22 06:11:50;;;;;;;0.00;0.00;;;;;;;9.39;53.37;148499.81;4988746;28;20239;-66
2024/01/22 06:14:17;;;;;;;0.00;0.00;;;;;;;9.42;53.03;148507.28;4972958;28;20232;-67
2024/01/22 06:16:46;;;;;;;0.00;0.00;;;;;;;9.53;51.91;148534.66;4976554;28;20760;-67
2024/01/22 06:19:13;;;;;;;0.00;0.00;;;;;;;9.51;51.99;148528.41;4972659;28;20236;-67
2024/01/22 06:21:42;;;;;;;0.00;0.00;;;;;;;9.54;52.17;148537.09;4975289;28;20243;-68
2024/01/22 06:24:10;;;;;;;0.00;0.00;;;;;;;9.62;51.62;148554.53;4971677;28;20219;-67
2024/01/22 06:26:37;;;;;;;0.00;0.00;;;;;;;9.59;51.93;148549.56;4973597;28;20226;-65
2024/01/22 06:29:03;;;;;;;0.00;0.00;;;;;;;9.62;52.10;148554.53;4974380;28;20537;-68
2024/01/22 06:31:30;;;;;;;0.00;0.00;;;;;;;9.78;51.25;148593.16;4974973;28;20242;-65
2024/01/22 06:33:57;;;;;;;0.00;0.00;;;;;;;9.71;52.53;148576.94;4977267;28;20243;-65
2024/01/22 06:36:23;;;;;;;0.00;0.00;;;;;;;9.68;52.57;148570.75;4972531;28;20360;-65
2024/01/22 06:38:50;;;;;;;0.00;0.00;;;;;;;9.67;52.88;148566.97;4978846;28;20227;-65
2024/01/22 06:41:19;;;;;;;0.00;0.00;;;;;;;9.80;53.58;148598.13;4974236;28;20233;-65
2024/01/22 06:43:45;;;;;;;0.00;0.00;;;;;;;9.93;52.50;148629.22;4976196;28;20226;-65
2024/01/22 06:46:12;;;;;;;0.00;0.00;;;;;;;9.86;52.74;148613.06;4971104;28;20232;-66
2024/01/22 06:48:39;;;;;;;0.00;0.00;;;;;;;9.85;52.79;148610.56;4975227;28;20254;-65
2024/01/22 06:51:08;;;;;;;0.00;0.00;;;;;;;9.88;53.12;148618.03;4972997;28;20713;-66
2024/01/22 06:53:35;;;;;;;0.00;0.00;;;;;;;9.76;53.73;148589.38;4972549;28;20234;-65
2024/01/22 06:56:01;;;;;;;0.00;0.00;;;;;;;9.85;51.51;148610.56;4975254;28;20250;-65
2024/01/22 06:58:29;;;;;;;0.00;0.00;;;;;;;9.93;51.61;148629.22;4972856;28;20231;-66
2024/01/22 07:00:56;;;;;;;0.00;0.00;;;;;;;9.91;51.93;148625.50;4976103;28;20244;-66
2024/01/22 07:03:23;;;;;;;0.00;0.00;;;;;;;10.08;50.66;148665.31;4970138;28;20266;-66
2024/01/22 07:05:50;;;;;;;0.00;0.00;;;;;;;10.13;50.70;148679.03;4974153;28;20242;-65
2024/01/22 07:08:17;;;;;;;0.00;0.00;;;;;;;10.04;51.31;148656.63;4971539;28;20215;-66
2024/01/22 07:10:44;;;;;;;0.00;0.00;;;;;;;9.97;52.16;148639.19;4976203;28;20715;-66
2024/01/22 07:13:10;;;;;;;0.00;0.00;;;;;;;9.89;54.45;148620.53;4973846;28;20230;-66
2024/01/22 07:15:38;;;;;;;0.00;0.00;;;;;;;9.92;56.12;148626.72;4975693;28;20587;-65
2024/01/22 07:18:05;;;;;;;0.00;0.00;;;;;;;10.03;59.13;148655.41;4973347;28;20227;-68
2024/01/22 07:20:32;;;;;;;0.00;0.00;;;;;;;10.05;61.07;148659.09;4975621;28;20253;-67
2024/01/22 07:22:59;;;;;;;0.00;0.00;;;;;;;9.98;63.09;148642.94;4975664;28;20274;-67
2024/01/22 07:25:26;;;;;;;0.00;0.00;;;;;;;10.10;65.47;148670.28;4972452;28;20235;-67
2024/01/22 07:27:53;;;;;;;0.00;0.00;;;;;;;10.10;66.86;148671.56;4968649;28;20244;-67
2024/01/22 07:30:19;;;;;;;0.00;0.00;;;;;;;10.19;68.74;148693.97;4965167;28;20237;-68
2024/01/22 07:32:52;;;;;;;0.00;0.00;;;;;;;10.31;69.41;148721.38;4973395;28;20709;-67
2024/01/22 07:35:19;;;;;;;0.00;0.00;;;;;;;10.44;70.74;148753.78;4972672;28;20595;-67
2024/01/22 07:37:49;;;;;;;0.00;0.00;;;;;;;10.46;71.70;148757.50;4975604;28;20727;-67
2024/01/22 07:40:15;;;;;;;0.00;0.00;;;;;;;10.53;71.20;148774.94;4986333;28;20220;-66
2024/01/22 07:42:42;;;;;;;3.13;1.17;;;;;;;10.49;71.90;148764.97;4974087;28;20251;-67
2024/01/22 07:45:11;;;;;;;0.63;0.50;;;;;;;10.56;72.58;148782.41;4971750;28;20364;-67
2024/01/22 07:47:38;;;;;;;1.57;0.53;;;;;;;10.60;73.23;148791.16;4973768;28;20223;-67
2024/01/22 07:50:10;;;;;;;3.00;1.40;;;;;;;10.63;72.93;148799.84;4969756;28;20251;-67
2024/01/22 07:52:37;;;;;;;1.43;0.50;;;;;;;10.71;74.54;148818.53;4978561;28;20658;-67
2024/01/22 07:55:05;;;;;;;1.90;0.40;;;;;;;10.73;73.70;148822.28;4973694;28;20235;-68
2024/01/22 07:57:32;;;;;;;1.67;0.80;;;;;;;10.79;73.51;148837.22;4973023;28;20235;-66
2024/01/22 07:59:58;;;;;;;3.63;0.87;;;;;;;10.85;73.83;148850.91;4974859;28;20244;-66
2024/01/22 08:02:25;;;;;;;1.73;0.60;;;;;;;10.78;74.71;148834.75;4969678;28;20747;-67
2024/01/22 08:04:52;;;;;;;1.07;0.50;;;;;;;10.83;74.76;148845.94;4975793;28;20230;-67
2024/01/22 08:07:20;;;;;;;2.00;0.70;;;;;;;10.79;75.36;148837.22;4976158;28;20215;-66
2024/01/22 08:09:47;;;;;;;1.27;0.80;;;;;;;10.83;74.51;148845.94;4970216;28;20910;-66
2024/01/22 08:12:13;;;;;;;1.50;0.63;;;;;;;10.85;74.44;148850.91;4972367;28;20232;-66
2024/01/22 08:14:40;;;;;;;1.17;0.53;;;;;;;10.92;75.42;148869.63;4975037;28;20232;-66
2024/01/22 08:17:06;;;;;;;5.73;2.73;;;;;;;10.89;74.95;148862.16;4971401;28;20232;-67
2024/01/22 08:19:34;;;;;;;2.20;0.70;;;;;;;10.96;75.31;148877.09;4978029;28;20241;-67
2024/01/22 08:22:02;;;;;;;1.90;1.20;;;;;;;11.02;75.06;148893.28;4975261;28;20694;-66
2024/01/22 08:24:30;;;;;;;2.67;0.60;;;;;;;11.05;74.86;148900.75;4973375;28;20224;-67
2024/01/22 08:26:56;;;;;;;2.13;0.60;;;;;;;11.08;75.25;148908.22;4969738;28;20236;-66
2024/01/22 08:29:23;;;;;;;4.20;0.83;;;;;;;11.10;75.79;148910.72;4973328;28;20232;-66
2024/01/22 08:31:50;;;;;;;2.47;0.60;;;;;;;11.13;75.35;148918.19;4974511;28;20655;-66
2024/01/22 08:34:16;;;;;;;1.20;0.60;;;;;;;11.30;74.65;148959.28;4974723;28;20246;-66
2024/01/22 08:36:43;;;;;;;4.33;2.33;;;;;;;11.29;74.87;148958.06;4975974;28;20238;-66
2024/01/22 08:39:10;;;;;;;4.20;1.10;;;;;;;11.24;75.95;148945.59;4970403;28;20314;-66
2024/01/22 08:41:38;;;;;;;0.67;0.30;;;;;;;11.26;75.82;148950.59;4974254;28;20726;-66
2024/01/22 08:44:05;;;;;;;1.33;0.70;;;;;;;11.25;77.22;148946.81;4970472;28;20224;-66
2024/01/22 08:46:32;;;;;;;0.73;0.60;;;;;;;11.34;76.95;148970.53;4976182;28;20238;-66
2024/01/22 08:48:59;;;;;;;2.03;0.60;;;;;;;11.37;77.41;148976.72;4977591;28;20239;-66
2024/01/22 08:51:26;;;;;;;1.37;0.70;;;;;;;11.33;79.60;148968.03;4975026;28;20231;-66
2024/01/22 08:53:52;;;;;;;2.87;0.50;;;;;;;11.50;78.05;149009.13;4975176;28;20710;-66
2024/01/22 08:56:20;;;;;;;1.43;0.47;;;;;;;11.47;80.13;149001.66;4973771;28;20701;-66
2024/01/22 08:58:48;;;;;;;0.87;0.50;;;;;;;11.08;86.07;148908.22;4977001;28;20255;-66
2024/01/22 09:01:15;;;;;;;3.93;0.80;;;;;;;10.61;94.33;148793.59;4974462;28;20231;-66
2024/01/22 09:03:41;;;;;;;1.33;0.50;;;;;;;10.47;94.26;148761.28;4978485;28;20619;-66
2024/01/22 09:06:08;;;;;;;1.30;0.50;;;;;;;10.21;96.87;148697.69;4973971;28;20232;-66
2024/01/22 09:08:35;;;;;;;1.27;0.60;;;;;;;10.16;96.29;148686.50;4976662;28;20274;-66
2024/01/22 09:11:02;;;;;;;1.17;0.60;;;;;;;10.23;95.69;148701.44;4978289;28;20275;-66
2024/01/22 09:13:28;;;;;;;2.70;0.87;;;;;;;10.25;91.81;148706.44;4973415;28;20298;-67
2024/01/22 09:15:57;;;;;;;0.80;0.40;;;;;;;10.25;92.47;148706.44;4976232;28;20235;-67
2024/01/22 09:18:24;;;;;;;2.30;1.13;;;;;;;10.29;90.41;148716.38;4973956;28;20247;-67
2024/01/22 09:20:52;;;;;;;2.53;1.10;;;;;;;10.40;86.34;148743.84;4974682;28;20306;-67
2024/01/22 09:23:18;;;;;;;4.20;1.30;;;;;;;10.48;84.27;148762.50;4975323;28;20579;-66
2024/01/22 09:25:45;;;;;;;3.63;0.97;;;;;;;10.45;85.91;148756.28;4975519;28;20232;-66
2024/01/22 09:28:14;;;;;;;2.80;0.60;;;;;;;10.51;84.29;148768.75;4975053;28;20226;-66
2024/01/22 09:30:40;;;;;;;1.63;0.60;;;;;;;10.58;83.00;148786.19;4977307;28;20690;-66
2024/01/22 09:33:09;;;;;;;1.27;0.57;;;;;;;10.62;82.53;148796.09;4977242;28;20218;-67
2024/01/22 09:35:37;;;;;;;1.30;0.33;;;;;;;10.65;82.64;148802.34;4977941;28;20580;-66
2024/01/22 09:38:04;;;;;;;2.97;0.70;;;;;;;10.59;84.45;148788.69;4958274;28;20239;-66
2024/01/22 09:40:33;;;;;;;1.23;0.60;;;;;;;10.69;84.68;148812.31;4973792;28;20613;-66
2024/01/22 09:43:03;;;;;;;1.13;0.40;;;;;;;10.66;83.21;148806.06;4991786;28;20641;-66
2024/01/22 09:45:32;;;;;;;0.60;0.40;;;;;;;10.71;84.49;148817.31;4976363;28;20228;-67
2024/01/22 09:47:59;;;;;;;0.90;0.50;;;;;;;10.58;85.70;148787.41;4978766;28;20298;-66
2024/01/22 09:50:27;;;;;;;1.30;0.43;;;;;;;10.64;86.79;148801.09;4973604;28;20247;-66
2024/01/22 09:52:54;;;;;;;1.53;0.70;;;;;;;10.71;84.30;148818.53;4975693;28;20238;-66
2024/01/22 09:55:23;;;;;;;2.47;0.90;;;;;;;10.72;85.13;148821.00;4969940;28;20730;-66
2024/01/22 09:58:00;;;;;;;0.60;0.40;;;;;;;10.73;83.38;148823.50;4974822;28;20228;-66
2024/01/22 10:00:29;;;;;;;0.40;0.30;;;;;;;10.95;81.18;148874.59;4846412;28;20236;-67
2024/01/22 10:02:56;;;;;;;1.37;0.30;;;;;;;11.07;80.21;148905.72;4978645;28;20602;-67
2024/01/22 10:05:23;;;;;;;1.03;0.50;;;;;;;11.17;79.45;148929.38;4974229;28;20276;-67
2024/01/22 10:07:52;;;;;;;1.27;0.50;;;;;;;11.25;79.15;148946.81;4975852;28;20241;-67
2024/01/22 10:10:20;;;;;;;2.53;0.50;;;;;;;11.31;79.30;148961.78;4973466;28;20217;-67
2024/01/22 10:12:57;;;;;;;0.43;0.37;;;;;;;11.30;79.57;148960.56;4976155;28;20290;-67
2024/01/22 10:15:24;;;;;;;2.50;0.50;;;;;;;11.40;79.90;148984.22;4974952;28;20379;-67
2024/01/22 10:17:50;;;;;;;0.63;0.30;;;;;;;11.44;79.90;148994.19;4976095;28;20228;-67
2024/01/22 10:20:22;;;;;;;1.40;0.40;;;;;;;11.52;79.25;149014.13;4973424;28;20228;-67
2024/01/22 10:23:01;;;;;;;0.57;0.30;;;;;;;11.70;79.05;149056.50;4975257;28;20281;-67
2024/01/22 10:25:29;;;;;;;0.90;0.47;;;;;;;11.73;79.85;149062.72;4965318;28;20240;-67
2024/01/22 10:28:08;;;;;;;1.93;0.30;;;;;;;11.86;78.52;149093.91;4977109;28;20245;-66
2024/01/22 10:30:36;;;;;;;0.60;0.30;;;;;;;11.75;80.50;149067.69;4973442;28;20695;-66
2024/01/22 10:33:11;;;;;;;0.63;0.27;;;;;;;11.96;79.43;149118.81;4964632;28;20221;-66
2024/01/22 10:35:37;;;;;;;0.60;0.40;;;;;;;11.87;79.86;149097.59;4964822;28;20239;-66
2024/01/22 10:38:10;;;;;;;0.93;0.40;;;;;;;11.87;80.86;149096.38;4972056;28;20238;-67
2024/01/22 10:40:38;;;;;;;0.43;0.27;;;;;;;11.82;80.99;149085.16;4976419;28;20262;-66
2024/01/22 10:43:27;;;;;;;2.10;0.77;;;;;;;11.88;81.74;149098.88;4989166;28;20699;-66
2024/01/22 10:45:55;;;;;;;0.50;0.50;;;;;;;11.90;83.06;149105.09;4978276;28;20239;-67
2024/01/22 10:48:24;;;;;;;7.23;6.53;;;;;;;11.95;85.35;149117.56;4972658;28;20244;-66
2024/01/22 10:50:51;;;;;;;1.80;0.37;;;;;;;11.75;85.14;149067.69;4977567;28;20239;-66
2024/01/22 10:53:20;;;;;;;2.00;1.30;;;;;;;11.77;85.96;149072.69;4973908;28;20223;-68
2024/01/22 10:55:58;;;;;;;0.73;0.33;;;;;;;11.71;85.99;149059.00;4975001;28;20238;-66
2024/01/22 10:58:26;;;;;;;0.93;0.30;;;;;;;11.59;87.11;149030.34;4970142;28;20236;-67
2024/01/22 11:00:58;;;;;;;1.63;0.50;;;;;;;11.51;87.29;149011.63;4975364;28;20227;-66
2024/01/22 11:03:27;;;;;;;2.17;0.23;;;;;;;11.39;88.11;148981.72;4971254;28;20231;-67
2024/01/22 11:05:59;;;;;;;0.47;0.30;;;;;;;11.40;90.39;148984.22;4972792;28;20248;-66
2024/01/22 11:08:28;;;;;;;2.77;0.77;;;;;;;11.14;92.81;148921.91;4971978;28;20267;-66
2024/01/22 11:10:56;;;;;;;0.70;0.43;;;;;;;11.06;94.86;148902.00;4969286;28;20210;-66
2024/01/22 11:13:23;;;;;;;0.60;0.50;;;;;;;11.10;93.83;148911.97;4967668;28;20231;-66
2024/01/22 11:15:50;;;;;;;0.80;0.47;;;;;;;11.11;92.85;148913.22;4974731;28;20267;-66
2024/01/22 11:18:16;;;;;;;0.60;0.40;;;;;;;11.14;92.07;148921.91;4970325;28;20236;-66
2024/01/22 11:20:43;;;;;;;1.10;0.40;;;;;;;11.17;91.68;148929.38;4976267;28;20247;-66
2024/01/22 11:23:09;;;;;;;1.00;0.53;;;;;;;11.21;91.52;148938.13;4971173;28;20215;-66
2024/01/22 11:25:37;;;;;;;0.83;0.40;;;;;;;11.21;91.30;148939.34;4974594;28;20891;-66
2024/01/22 11:28:07;;;;;;;0.93;0.40;;;;;;;11.29;90.36;148956.78;4979072;28;20240;-66
2024/01/22 11:30:35;;;;;;;0.60;0.40;;;;;;;11.25;91.14;148946.81;4974286;28;20295;-66
2024/01/22 11:33:02;;;;;;;0.33;0.20;;;;;;;11.30;91.46;148959.28;4968856;28;20230;-66